Terminal Aerodrome Forecast
Issued by NWS

Home | Current Version | Previous Version | Text Only | Print | Product List | Glossary On
Versions: 1 2 3 4 5 6 7 8 9 10 11 12 13 14 15 16 17 18 19 20 21 22
000
FTUS43 KJKL 302300
TAFSME
TAF
KSME 302323Z 3100/3124 VRB03KT P6SM VCTS SCT040CB BKN080
      TEMPO 3100/3104 2SM +TSRA BR BKN025CB
     FM310400 18003KT 6SM -SHRA BR VCTS BKN040CB OVC080
     FM310600 18003KT 4SM -SHRA BR VCTS SCT015 BKN025CB OVC040=

USA.gov is the U.S. government's official web portal to all federal, state and local government web resources and services.